createdAt,value
2019-03-27T00:00:50.499Z,72.93
2019-03-27T00:01:50.423Z,73.12
2019-03-27T00:02:50.364Z,73.03
2019-03-27T00:03:50.309Z,73.03
2019-03-27T00:04:50.255Z,72.84
2019-03-27T00:05:50.239Z,72.84
2019-03-27T00:06:50.143Z,72.93
2019-03-27T00:13:57.051Z,72.93
2019-03-27T00:14:56.988Z,72.84
2019-03-27T00:15:56.958Z,72.84
2019-03-27T00:16:56.879Z,73.03
2019-03-27T00:17:56.821Z,72.84
2019-03-27T00:18:56.767Z,73.22
2019-03-27T00:19:56.715Z,73.03
2019-03-27T00:20:56.679Z,72.84
2019-03-27T00:21:56.595Z,72.84
2019-03-27T00:22:56.532Z,72.74
2019-03-27T00:23:56.487Z,72.74
2019-03-27T00:24:56.426Z,73.03
2019-03-27T00:25:56.400Z,73.22
2019-03-27T00:26:56.319Z,73.12
2019-03-27T00:27:56.263Z,73.12
2019-03-27T00:28:56.204Z,73.12
2019-03-27T00:29:56.153Z,73.03
2019-03-27T00:30:56.117Z,72.84
2019-03-27T00:31:56.038Z,73.12
2019-03-27T00:32:55.982Z,73.03
2019-03-27T00:33:55.930Z,73.03
2019-03-27T00:34:55.871Z,73.03
2019-03-27T00:35:55.856Z,73.03
2019-03-27T00:36:55.763Z,73.03
2019-03-27T00:37:55.710Z,72.84
2019-03-27T00:38:55.646Z,73.22
2019-03-27T00:39:55.591Z,72.84
2019-03-27T00:40:55.535Z,73.03
2019-03-27T00:41:55.504Z,73.12
2019-03-27T00:42:55.424Z,72.93
2019-03-27T00:43:55.369Z,72.84
2019-03-27T00:44:55.313Z,73.03
2019-03-27T00:45:55.265Z,72.84
2019-03-27T00:46:55.225Z,72.93
2019-03-27T00:47:55.144Z,72.84
2019-03-27T00:48:55.089Z,73.22
2019-03-27T00:49:55.032Z,72.74
2019-03-27T00:50:54.977Z,72.93
2019-03-27T00:51:54.942Z,72.64
2019-03-27T00:52:54.866Z,72.84
2019-03-27T00:53:54.816Z,72.84
2019-03-27T00:54:54.751Z,73.22
2019-03-27T00:55:54.697Z,72.84
2019-03-27T00:56:54.664Z,72.74
2019-03-27T00:57:54.581Z,72.84
2019-03-27T00:58:54.534Z,73.31
2019-03-27T00:59:54.470Z,73.22
2019-03-27T01:00:54.412Z,72.93
2019-03-27T01:01:54.386Z,73.12
2019-03-27T01:02:54.309Z,72.93
2019-03-27T01:03:54.250Z,72.74
2019-03-27T01:05:02.086Z,72.93
2019-03-27T01:05:54.141Z,72.84
2019-03-27T01:06:54.102Z,72.93
2019-03-27T01:07:54.024Z,72.64
2019-03-27T01:08:53.968Z,72.93
2019-03-27T01:09:53.913Z,73.12
2019-03-27T01:10:53.858Z,72.64
2019-03-27T01:11:53.829Z,73.03
2019-03-27T01:12:53.742Z,73.12
2019-03-27T01:13:53.686Z,73.03
2019-03-27T01:14:53.632Z,73.22
2019-03-27T01:15:53.578Z,73.03
2019-03-27T01:16:53.541Z,72.93
2019-03-27T01:17:53.467Z,73.31
2019-03-27T01:18:53.406Z,73.03
2019-03-27T01:19:53.354Z,73.12
2019-03-27T01:20:53.297Z,72.84
2019-03-27T01:21:53.267Z,72.93
2019-03-27T01:22:53.201Z,72.84
2019-03-27T01:23:53.124Z,72.84
2019-03-27T01:24:53.081Z,72.84
2019-03-27T01:25:53.014Z,72.84
2019-03-27T01:26:52.980Z,73.12
2019-03-27T01:27:52.980Z,73.03
2019-03-27T01:28:52.850Z,72.93
2019-03-27T01:29:52.792Z,72.84
2019-03-27T01:30:52.737Z,73.12
2019-03-27T01:31:52.710Z,73.12
2019-03-27T01:32:52.624Z,72.93
2019-03-27T01:33:52.563Z,73.03
2019-03-27T01:34:52.518Z,73.12
2019-03-27T01:35:52.456Z,73.03
2019-03-27T01:36:52.421Z,73.03
2019-03-27T01:37:52.345Z,73.03
2019-03-27T01:38:52.286Z,73.03
2019-03-27T01:39:52.234Z,73.03
2019-03-27T01:40:52.169Z,73.03
2019-03-27T01:41:52.144Z,73.12
2019-03-27T01:42:52.072Z,73.22
2019-03-27T01:43:52.009Z,73.31
2019-03-27T01:44:51.954Z,73.03
2019-03-27T01:45:53.357Z,73.03
2019-03-27T01:46:51.866Z,73.22
2019-03-27T01:47:51.785Z,73.03
2019-03-27T01:48:51.732Z,73.03
2019-03-27T01:49:51.674Z,73.03
2019-03-27T01:50:51.620Z,73.03
2019-03-27T01:51:51.586Z,72.93
2019-03-27T01:52:51.506Z,73.03
2019-03-27T01:53:51.451Z,72.55
2019-03-27T01:54:51.401Z,72.74
2019-03-27T01:55:51.340Z,72.64
2019-03-27T01:56:51.309Z,72.74
2019-03-27T01:57:51.225Z,72.74
2019-03-27T01:58:51.170Z,72.64
2019-03-27T01:59:51.114Z,72.64
2019-03-27T02:00:51.059Z,72.74
2019-03-27T02:01:51.033Z,72.74
2019-03-27T02:02:50.973Z,73.03
2019-03-27T02:03:50.893Z,73.12
2019-03-27T02:04:50.834Z,72.55
2019-03-27T02:05:50.784Z,72.74
2019-03-27T02:06:50.728Z,72.45
2019-03-27T02:07:50.691Z,72.45
2019-03-27T02:08:50.613Z,72.55
2019-03-27T02:09:50.553Z,72.45
2019-03-27T02:10:50.501Z,72.84
2019-03-27T02:11:50.446Z,72.64
2019-03-27T02:12:50.415Z,73.03
2019-03-27T02:13:50.338Z,72.27
2019-03-27T02:14:50.277Z,72.55
2019-03-27T02:15:50.221Z,72.64
2019-03-27T02:16:50.165Z,72.74
2019-03-27T02:17:50.129Z,72.55
2019-03-27T02:18:50.050Z,72.45
2019-03-27T02:19:50.001Z,72.55
2019-03-27T02:20:49.939Z,72.74
2019-03-27T02:21:49.885Z,72.64
2019-03-27T02:22:49.852Z,72.74
2019-03-27T02:23:49.773Z,72.64
2019-03-27T02:24:49.745Z,72.74
2019-03-27T02:25:49.666Z,72.84
2019-03-27T02:26:49.604Z,72.74
2019-03-27T02:27:49.576Z,72.36
2019-03-27T02:28:49.492Z,72.17
2019-03-27T02:29:49.432Z,72.55
2019-03-27T02:30:49.379Z,72.08
2019-03-27T02:31:49.327Z,72.08
2019-03-27T02:32:49.301Z,72.08
2019-03-27T02:33:49.211Z,71.98
2019-03-27T02:34:49.161Z,72.27
2019-03-27T02:35:49.104Z,71.80
2019-03-27T02:36:49.047Z,72.27
2019-03-27T02:37:49.022Z,71.70
2019-03-27T02:38:48.943Z,72.27
2019-03-27T02:39:48.880Z,72.17
2019-03-27T02:40:48.821Z,72.08
2019-03-27T02:41:48.769Z,72.17
2019-03-27T02:42:48.729Z,71.89
2019-03-27T02:43:48.659Z,72.08
2019-03-27T02:44:48.601Z,71.89
2019-03-27T02:45:48.545Z,72.08
2019-03-27T02:46:48.485Z,71.98
2019-03-27T02:47:48.457Z,71.80
2019-03-27T02:48:48.376Z,72.08
2019-03-27T02:49:48.321Z,72.08
2019-03-27T02:50:48.277Z,71.80
2019-03-27T02:51:48.207Z,71.89
2019-03-27T02:52:48.185Z,71.80
2019-03-27T02:53:48.096Z,71.89
2019-03-27T02:54:48.047Z,71.89
2019-03-27T02:55:47.997Z,72.27
2019-03-27T02:56:47.936Z,72.27
2019-03-27T02:57:47.899Z,71.89
2019-03-27T02:58:47.825Z,72.27
2019-03-27T02:59:47.767Z,72.17
2019-03-27T03:00:47.714Z,72.17
2019-03-27T03:01:48.274Z,72.27
2019-03-27T03:02:47.616Z,72.84
2019-03-27T03:03:47.539Z,72.55
2019-03-27T03:04:47.489Z,72.55
2019-03-27T03:05:47.435Z,72.74
2019-03-27T03:06:47.368Z,72.55
2019-03-27T03:07:47.343Z,72.64
2019-03-27T03:08:47.269Z,72.61
2019-03-27T03:09:47.205Z,72.64
2019-03-27T03:10:47.151Z,72.45
2019-03-27T03:11:47.091Z,72.61
2019-03-27T03:12:47.059Z,72.45
2019-03-27T03:13:46.980Z,72.45
2019-03-27T03:14:46.932Z,72.45
2019-03-27T03:15:46.901Z,73.22
2019-03-27T03:16:46.809Z,72.61
2019-03-27T03:17:46.791Z,72.80
2019-03-27T03:18:46.704Z,72.80
2019-03-27T03:19:46.648Z,72.80
2019-03-27T03:20:46.589Z,72.89
2019-03-27T03:21:46.532Z,72.99
2019-03-27T03:22:46.474Z,72.61
2019-03-27T03:23:46.449Z,72.52
2019-03-27T03:24:46.362Z,72.89
2019-03-27T03:25:46.307Z,72.99
2019-03-27T03:26:50.453Z,72.52
2019-03-27T03:27:46.197Z,72.52
2019-03-27T03:28:46.162Z,72.52
2019-03-27T03:29:46.088Z,73.08
2019-03-27T03:30:46.027Z,72.42
2019-03-27T03:31:45.981Z,72.61
2019-03-27T03:32:45.938Z,72.61
2019-03-27T03:33:45.907Z,72.61
2019-03-27T03:34:45.807Z,72.99
2019-03-27T03:35:45.744Z,72.71
2019-03-27T03:36:45.694Z,72.89
2019-03-27T03:37:45.639Z,72.89
2019-03-27T03:38:45.613Z,73.08
2019-03-27T03:39:45.524Z,73.27
2019-03-27T03:40:45.469Z,73.08
2019-03-27T03:41:45.419Z,73.18
2019-03-27T03:42:45.357Z,73.08
2019-03-27T03:43:45.322Z,72.71
2019-03-27T03:44:45.243Z,73.27
2019-03-27T03:45:45.188Z,73.18
2019-03-27T03:46:58.757Z,72.99
2019-03-27T03:47:45.073Z,73.18
2019-03-27T03:48:45.049Z,73.18
2019-03-27T03:49:44.965Z,72.99
2019-03-27T03:50:44.916Z,72.99
2019-03-27T03:51:44.851Z,73.18
2019-03-27T03:52:46.039Z,73.27
2019-03-27T03:53:44.759Z,72.99
2019-03-27T03:54:44.695Z,72.99
2019-03-27T03:55:44.621Z,73.18
2019-03-27T03:56:44.571Z,73.27
2019-03-27T03:57:44.514Z,72.99
2019-03-27T03:58:44.481Z,73.18
2019-03-27T03:59:44.400Z,73.18
2019-03-27T04:00:44.350Z,72.99
2019-03-27T04:01:44.289Z,73.18
2019-03-27T04:02:44.234Z,73.08
2019-03-27T04:03:44.197Z,72.99
2019-03-27T04:04:44.119Z,73.18
2019-03-27T04:05:44.063Z,73.18
2019-03-27T04:06:44.015Z,72.99
2019-03-27T04:07:43.953Z,73.27
2019-03-27T04:08:43.921Z,73.27
2019-03-27T04:09:43.842Z,73.27
2019-03-27T04:10:43.901Z,73.27
2019-03-27T04:11:43.730Z,73.08
2019-03-27T04:12:43.672Z,73.27
2019-03-27T04:13:43.643Z,73.18
2019-03-27T04:14:43.561Z,72.99
2019-03-27T04:15:43.507Z,73.18
2019-03-27T04:16:43.448Z,72.89
2019-03-27T04:17:43.399Z,73.37
2019-03-27T04:18:43.360Z,73.37
2019-03-27T04:19:43.279Z,73.37
2019-03-27T04:20:43.264Z,73.37
2019-03-27T04:21:43.176Z,73.18
2019-03-27T04:22:43.114Z,73.37
2019-03-27T04:23:43.083Z,73.18
2019-03-27T04:24:43.000Z,72.99
2019-03-27T04:26:07.143Z,73.18
2019-03-27T04:26:42.886Z,72.99
2019-03-27T04:27:42.825Z,73.08
2019-03-27T04:28:42.800Z,73.27
2019-03-27T04:29:42.717Z,73.18
2019-03-27T04:30:42.658Z,72.80
2019-03-27T04:31:42.603Z,73.37
2019-03-27T04:32:42.556Z,73.18
2019-03-27T04:33:42.520Z,73.37
2019-03-27T04:34:42.435Z,73.18
2019-03-27T04:35:42.381Z,73.37
2019-03-27T04:36:42.321Z,73.18
2019-03-27T04:37:42.269Z,73.18
2019-03-27T04:38:42.236Z,73.18
2019-03-27T04:39:42.156Z,73.18
2019-03-27T04:40:42.100Z,72.99
2019-03-27T04:41:42.045Z,72.99
2019-03-27T04:42:41.991Z,73.18
2019-03-27T04:43:41.951Z,73.27
2019-03-27T04:44:41.878Z,73.18
2019-03-27T04:45:41.820Z,72.99
2019-03-27T04:46:41.760Z,72.99
2019-03-27T04:47:41.704Z,72.89
2019-03-27T04:48:41.673Z,73.18
2019-03-27T04:49:41.593Z,73.08
2019-03-27T04:50:41.540Z,72.80
2019-03-27T04:51:41.483Z,73.22
2019-03-27T04:52:41.422Z,72.99
2019-03-27T04:53:41.398Z,73.03
2019-03-27T04:54:41.311Z,73.03
2019-03-27T04:55:41.255Z,72.93
2019-03-27T04:56:41.204Z,72.93
2019-03-27T04:57:41.145Z,72.84
2019-03-27T04:58:41.115Z,73.03
2019-03-27T04:59:41.066Z,72.93
2019-03-27T05:00:40.973Z,72.74
2019-03-27T05:01:40.927Z,72.84
2019-03-27T05:02:40.866Z,72.64
2019-03-27T05:03:40.814Z,72.74
2019-03-27T05:04:40.774Z,72.64
2019-03-27T05:05:40.699Z,73.03
2019-03-27T05:06:40.640Z,73.03
2019-03-27T05:07:40.586Z,73.03
2019-03-27T05:08:40.530Z,72.84
2019-03-27T05:09:40.498Z,72.74
2019-03-27T05:10:40.429Z,72.64
2019-03-27T05:11:40.368Z,72.55
2019-03-27T05:12:40.317Z,72.45
2019-03-27T05:13:40.251Z,72.64
2019-03-27T05:14:40.220Z,72.55
2019-03-27T05:15:40.150Z,72.55
2019-03-27T05:16:40.082Z,72.64
2019-03-27T05:17:45.912Z,72.64
2019-03-27T05:18:39.976Z,72.55
2019-03-27T05:19:39.934Z,72.55
2019-03-27T05:20:39.860Z,72.55
2019-03-27T05:21:39.807Z,72.64
2019-03-27T05:22:39.745Z,72.64
2019-03-27T05:23:39.695Z,72.45
2019-03-27T05:24:39.654Z,72.55
2019-03-27T05:25:39.584Z,72.45
2019-03-27T05:26:39.527Z,72.64
2019-03-27T05:27:39.470Z,72.64
2019-03-27T05:28:39.412Z,72.64
2019-03-27T05:29:39.382Z,72.64
2019-03-27T05:30:39.302Z,72.74
2019-03-27T05:31:39.250Z,72.74
2019-03-27T05:32:39.196Z,72.64
2019-03-27T05:33:39.137Z,72.74
2019-03-27T05:34:39.103Z,72.55
2019-03-27T05:35:39.022Z,72.64
2019-03-27T05:36:38.974Z,72.84
2019-03-27T05:37:38.910Z,72.84
2019-03-27T05:38:38.851Z,72.84
2019-03-27T05:39:38.822Z,72.64
2019-03-27T05:40:38.743Z,72.84
2019-03-27T05:41:38.688Z,72.64
2019-03-27T05:42:38.638Z,72.17
2019-03-27T05:43:38.618Z,72.55
2019-03-27T05:44:38.538Z,72.08
2019-03-27T05:45:38.463Z,71.89
2019-03-27T05:46:38.405Z,71.98
2019-03-27T05:47:38.348Z,71.89
2019-03-27T05:48:38.297Z,72.08
2019-03-27T05:49:38.270Z,71.70
2019-03-27T05:50:38.182Z,71.70
2019-03-27T05:51:38.127Z,71.80
2019-03-27T05:52:38.092Z,71.70
2019-03-27T05:53:38.012Z,72.08
2019-03-27T05:54:37.985Z,71.83
2019-03-27T05:55:37.899Z,72.08
2019-03-27T05:56:37.845Z,71.89
2019-03-27T05:57:37.794Z,72.08
2019-03-27T05:58:37.735Z,71.80
2019-03-27T05:59:37.708Z,71.89
2019-03-27T06:00:37.625Z,72.08
2019-03-27T06:01:37.565Z,72.08
2019-03-27T06:02:37.511Z,72.30
2019-03-27T06:03:37.450Z,72.02
2019-03-27T06:04:37.420Z,72.21
2019-03-27T06:05:37.344Z,72.21
2019-03-27T06:06:37.284Z,72.21
2019-03-27T06:07:37.231Z,72.21
2019-03-27T06:08:37.174Z,72.11
2019-03-27T06:09:37.143Z,71.83
2019-03-27T06:10:37.068Z,71.64
2019-03-27T06:11:37.013Z,72.49
2019-03-27T06:12:36.954Z,71.45
2019-03-27T06:13:36.902Z,72.59
2019-03-27T06:14:36.861Z,72.49
2019-03-27T06:15:36.857Z,71.36
2019-03-27T06:16:36.729Z,71.45
2019-03-27T06:17:36.686Z,71.26
2019-03-27T06:18:36.614Z,71.92
2019-03-27T06:19:36.583Z,72.49
2019-03-27T06:20:36.505Z,72.21
2019-03-27T06:21:36.450Z,72.11
2019-03-27T06:22:36.400Z,71.36
2019-03-27T06:23:36.341Z,72.02
2019-03-27T06:24:36.302Z,72.02
2019-03-27T06:25:36.224Z,71.36
2019-03-27T06:26:36.169Z,71.55
2019-03-27T06:27:36.117Z,71.92
2019-03-27T06:28:36.057Z,72.11
2019-03-27T06:29:36.021Z,71.55
2019-03-27T06:30:35.948Z,71.64
2019-03-27T06:31:35.887Z,71.73
2019-03-27T06:32:35.837Z,71.55
2019-03-27T06:33:35.786Z,72.21
2019-03-27T06:34:35.748Z,71.26
2019-03-27T06:35:35.678Z,71.83
2019-03-27T06:36:35.614Z,72.02
2019-03-27T06:37:35.555Z,72.11
2019-03-27T06:38:35.498Z,72.02
2019-03-27T06:39:35.477Z,72.68
2019-03-27T06:40:35.382Z,72.88
2019-03-27T06:41:35.333Z,73.07
2019-03-27T06:42:35.287Z,72.78
2019-03-27T06:43:35.222Z,72.68
2019-03-27T06:44:35.196Z,72.59
2019-03-27T06:45:35.118Z,72.88
2019-03-27T06:46:35.052Z,72.78
2019-03-27T06:47:35.004Z,72.88
2019-03-27T06:48:34.941Z,72.30
2019-03-27T06:49:34.913Z,72.30
2019-03-27T06:50:34.826Z,72.11
2019-03-27T06:51:40.416Z,72.78
2019-03-27T06:52:34.790Z,73.07
2019-03-27T06:53:34.663Z,74.11
2019-03-27T06:54:34.633Z,73.63
2019-03-27T06:55:34.561Z,73.82
2019-03-27T06:56:34.495Z,73.82
2019-03-27T06:57:34.442Z,74.01
2019-03-27T06:58:34.386Z,74.01
2019-03-27T06:59:34.358Z,73.63
2019-03-27T07:00:34.277Z,74.68
2019-03-27T07:01:34.217Z,74.11
2019-03-27T07:02:34.166Z,73.72
2019-03-27T07:03:34.110Z,74.01
2019-03-27T07:04:34.074Z,74.01
2019-03-27T07:05:33.993Z,73.54
2019-03-27T07:06:33.940Z,73.92
2019-03-27T07:07:33.884Z,73.25
2019-03-27T07:08:33.830Z,73.35
2019-03-27T07:09:33.797Z,72.88
2019-03-27T07:10:33.720Z,73.35
2019-03-27T07:11:33.659Z,73.16
2019-03-27T07:12:33.608Z,73.29
2019-03-27T07:13:33.558Z,73.00
2019-03-27T07:14:33.518Z,72.53
2019-03-27T07:15:35.773Z,72.72
2019-03-27T07:16:33.387Z,73.19
2019-03-27T07:17:33.337Z,73.19
2019-03-27T07:18:40.043Z,73.29
2019-03-27T07:19:33.248Z,73.76
2019-03-27T07:20:33.161Z,73.96
2019-03-27T07:21:33.109Z,73.19
2019-03-27T07:22:33.057Z,73.29
2019-03-27T07:23:32.998Z,73.29
2019-03-27T07:24:32.995Z,73.19
2019-03-27T07:25:32.892Z,72.72
2019-03-27T07:26:32.836Z,72.91
2019-03-27T07:27:32.776Z,72.81
2019-03-27T07:28:32.718Z,72.72
2019-03-27T07:29:32.667Z,72.81
2019-03-27T07:30:32.645Z,72.44
2019-03-27T07:31:32.555Z,71.96
2019-03-27T07:32:32.504Z,71.96
2019-03-27T07:33:32.445Z,72.15
2019-03-27T07:34:32.394Z,71.96
2019-03-27T07:35:32.366Z,72.06
2019-03-27T07:36:32.284Z,72.63
2019-03-27T07:37:32.233Z,72.91
2019-03-27T07:38:32.175Z,72.34
2019-03-27T07:39:32.112Z,72.15
2019-03-27T07:40:32.090Z,71.96
2019-03-27T07:41:32.009Z,72.81
2019-03-27T07:42:31.958Z,72.91
2019-03-27T07:43:31.900Z,72.53
2019-03-27T07:44:31.846Z,72.72
2019-03-27T07:45:31.808Z,72.53
2019-03-27T07:46:31.736Z,72.95
2019-03-27T07:47:31.681Z,73.29
2019-03-27T07:48:31.627Z,77.37
2019-03-27T07:49:31.574Z,78.70
2019-03-27T07:50:31.540Z,78.42
2019-03-27T07:51:31.465Z,77.56
2019-03-27T07:52:31.416Z,77.09
2019-03-27T07:53:31.355Z,76.99
2019-03-27T07:54:31.293Z,76.46
2019-03-27T07:55:31.262Z,76.46
2019-03-27T07:56:31.192Z,76.37
2019-03-27T07:57:31.138Z,77.70
2019-03-27T07:58:31.079Z,77.98
2019-03-27T07:59:31.029Z,77.31
2019-03-27T08:00:30.992Z,76.93
2019-03-27T08:01:30.919Z,76.18
2019-03-27T08:02:30.858Z,77.41
2019-03-27T08:03:30.807Z,77.03
2019-03-27T08:04:30.750Z,78.36
2019-03-27T08:05:30.725Z,79.60
2019-03-27T08:06:30.645Z,80.07
2019-03-27T08:07:30.593Z,83.11
2019-03-27T08:08:30.539Z,84.63
2019-03-27T08:09:30.482Z,82.92
2019-03-27T08:10:30.454Z,83.39
2019-03-27T08:11:30.490Z,84.34
2019-03-27T08:12:30.320Z,86.05
2019-03-27T08:13:30.269Z,85.58
2019-03-27T08:14:30.209Z,84.44
2019-03-27T08:15:30.182Z,84.63
2019-03-27T08:16:30.107Z,85.49
2019-03-27T08:17:30.134Z,85.20
2019-03-27T08:18:29.991Z,84.91
2019-03-27T08:19:29.947Z,86.15
2019-03-27T08:20:29.914Z,86.72
2019-03-27T08:21:31.346Z,85.77
2019-03-27T08:22:29.778Z,85.01
2019-03-27T08:23:29.730Z,85.86
2019-03-27T08:24:29.675Z,86.34
2019-03-27T08:25:29.647Z,85.11
2019-03-27T08:26:29.592Z,85.96
2019-03-27T08:27:29.519Z,86.15
2019-03-27T08:28:29.466Z,85.49
2019-03-27T08:29:29.403Z,85.39
2019-03-27T08:30:29.376Z,85.68
2019-03-27T08:31:29.295Z,85.86
2019-03-27T08:32:29.245Z,85.20
2019-03-27T08:33:29.181Z,85.86
2019-03-27T08:34:29.130Z,85.01
2019-03-27T08:35:29.097Z,84.72
2019-03-27T08:36:29.024Z,84.53
2019-03-27T08:37:28.971Z,87.10
2019-03-27T08:38:28.920Z,86.72
2019-03-27T08:39:28.860Z,85.86
2019-03-27T08:40:28.834Z,85.86
2019-03-27T08:41:28.753Z,84.95
2019-03-27T08:42:28.703Z,84.86
2019-03-27T08:43:28.642Z,84.77
2019-03-27T08:44:28.588Z,85.05
2019-03-27T08:45:28.584Z,84.77
2019-03-27T08:46:28.480Z,86.29
2019-03-27T08:47:28.430Z,85.72
2019-03-27T08:48:28.383Z,86.67
2019-03-27T08:49:28.326Z,86.29
2019-03-27T08:50:28.269Z,85.05
2019-03-27T08:51:28.236Z,85.62
2019-03-27T08:52:28.163Z,84.95
2019-03-27T08:53:28.110Z,84.77
2019-03-27T08:54:28.058Z,84.29
2019-03-27T08:55:27.998Z,85.24
2019-03-27T08:56:27.978Z,86.57
2019-03-27T08:57:27.895Z,86.86
2019-03-27T08:58:27.837Z,87.34
2019-03-27T08:59:27.782Z,86.95
2019-03-27T09:00:27.725Z,87.52
2019-03-27T09:01:27.699Z,88.28
2019-03-27T09:02:27.625Z,87.24
2019-03-27T09:03:27.562Z,87.71
2019-03-27T09:04:27.522Z,86.86
2019-03-27T09:05:27.464Z,89.14
2019-03-27T09:06:33.469Z,89.80
2019-03-27T09:07:27.354Z,88.85
2019-03-27T09:08:27.374Z,88.38
2019-03-27T09:09:27.243Z,89.61
2019-03-27T09:10:27.191Z,89.14
2019-03-27T09:11:27.163Z,87.34
2019-03-27T09:12:27.084Z,88.28
2019-03-27T09:13:27.032Z,88.09
2019-03-27T09:14:26.977Z,90.85
2019-03-27T09:15:26.922Z,90.00
2019-03-27T09:16:26.894Z,89.23
2019-03-27T09:17:26.817Z,89.23
2019-03-27T09:18:26.764Z,88.47
2019-03-27T09:19:35.520Z,89.33
2019-03-27T09:20:26.659Z,89.18
2019-03-27T09:21:26.625Z,89.47
2019-03-27T09:22:26.549Z,89.00
2019-03-27T09:23:26.495Z,91.75
2019-03-27T09:24:26.443Z,89.94
2019-03-27T09:25:26.388Z,90.52
2019-03-27T09:26:26.357Z,90.04
2019-03-27T09:27:26.278Z,89.28
2019-03-27T09:28:26.231Z,91.37
2019-03-27T09:29:26.175Z,91.08
2019-03-27T09:30:26.119Z,89.28
2019-03-27T09:31:26.092Z,91.94
2019-03-27T09:32:26.016Z,89.85
2019-03-27T09:33:25.961Z,91.28
2019-03-27T09:34:25.909Z,89.61
2019-03-27T09:35:25.856Z,89.89
2019-03-27T09:36:25.822Z,92.46
2019-03-27T09:37:25.751Z,90.84
2019-03-27T09:38:25.702Z,89.99
2019-03-27T09:39:25.636Z,89.70
2019-03-27T09:40:25.590Z,91.22
2019-03-27T09:41:25.559Z,93.04
2019-03-27T09:42:25.485Z,91.61
2019-03-27T09:43:25.434Z,89.61
2019-03-27T09:44:25.376Z,90.18
2019-03-27T09:45:25.330Z,91.99
2019-03-27T09:46:25.293Z,91.32
2019-03-27T09:47:25.224Z,90.66
2019-03-27T09:48:25.167Z,90.66
2019-03-27T09:49:25.114Z,91.13
2019-03-27T09:50:25.059Z,89.51
2019-03-27T09:51:25.032Z,91.42
2019-03-27T09:52:24.954Z,92.18
2019-03-27T09:53:24.910Z,91.13
2019-03-27T09:54:24.855Z,90.47
2019-03-27T09:55:24.798Z,90.94
2019-03-27T09:56:24.769Z,91.32
2019-03-27T09:57:24.692Z,89.37
2019-03-27T09:58:24.645Z,89.56
2019-03-27T09:59:24.592Z,90.61
2019-03-27T10:00:24.542Z,91.37
2019-03-27T10:01:24.506Z,92.32
2019-03-27T10:02:24.434Z,91.08
2019-03-27T10:03:24.380Z,90.42
2019-03-27T10:04:24.323Z,90.22
2019-03-27T10:05:24.351Z,89.56
2019-03-27T10:06:24.242Z,90.03
2019-03-27T10:07:24.169Z,91.56
2019-03-27T10:08:24.118Z,90.89
2019-03-27T10:09:24.066Z,90.13
2019-03-27T10:10:24.014Z,90.61
2019-03-27T10:11:24.031Z,89.27
2019-03-27T10:12:23.916Z,90.22
2019-03-27T10:13:23.853Z,90.99
2019-03-27T10:14:23.802Z,89.56
2019-03-27T10:15:23.750Z,89.75
2019-03-27T10:16:23.705Z,89.27
2019-03-27T10:17:23.673Z,91.70
2019-03-27T10:18:23.597Z,91.79
2019-03-27T10:19:23.541Z,90.94
2019-03-27T10:20:23.497Z,89.94
2019-03-27T10:21:23.442Z,91.37
2019-03-27T10:22:23.414Z,90.42
2019-03-27T10:23:23.336Z,88.99
2019-03-27T10:24:23.291Z,89.75
2019-03-27T10:25:23.233Z,90.22
2019-03-27T10:26:23.185Z,89.56
2019-03-27T10:27:23.161Z,92.32
2019-03-27T10:28:23.076Z,89.65
2019-03-27T10:29:23.032Z,90.17
2019-03-27T10:30:22.971Z,93.79
2019-03-27T10:31:22.924Z,90.75
2019-03-27T10:32:22.888Z,89.56
2019-03-27T10:33:22.825Z,87.51
2019-03-27T10:34:22.761Z,88.46
2019-03-27T10:35:22.713Z,89.51
2019-03-27T10:36:22.666Z,92.08
2019-03-27T10:37:22.641Z,89.65
2019-03-27T10:38:22.567Z,93.94
2019-03-27T10:39:22.512Z,93.37
2019-03-27T10:40:22.458Z,89.37
2019-03-27T10:41:22.402Z,86.51
2019-03-27T10:42:22.374Z,88.32
2019-03-27T10:43:22.299Z,88.13
2019-03-27T10:44:22.247Z,90.42
2019-03-27T10:45:22.194Z,92.22
2019-03-27T10:46:22.145Z,91.65
2019-03-27T10:47:22.117Z,90.89
2019-03-27T10:48:22.038Z,90.22
2019-03-27T10:49:21.985Z,90.51
2019-03-27T10:50:21.944Z,90.32
2019-03-27T10:51:21.889Z,91.46
2019-03-27T10:52:21.869Z,91.37
2019-03-27T10:53:21.774Z,93.18
2019-03-27T10:54:21.722Z,89.94
2019-03-27T10:55:21.667Z,90.32
2019-03-27T10:56:21.615Z,91.65
2019-03-27T10:57:21.585Z,92.60
2019-03-27T10:58:21.510Z,90.61
2019-03-27T10:59:21.455Z,91.27
2019-03-27T11:00:21.402Z,88.89
2019-03-27T11:01:21.362Z,90.22
2019-03-27T11:02:21.362Z,93.08
2019-03-27T11:03:21.248Z,89.98
2019-03-27T11:04:21.195Z,88.65
2019-03-27T11:05:21.136Z,90.36
2019-03-27T11:06:21.085Z,90.75
2019-03-27T11:07:21.068Z,90.84
2019-03-27T11:08:20.971Z,92.65
2019-03-27T11:09:20.927Z,91.46
2019-03-27T11:10:20.868Z,90.65
2019-03-27T11:11:20.820Z,88.84
2019-03-27T11:12:20.784Z,89.89
2019-03-27T11:13:20.714Z,88.84
2019-03-27T11:14:20.662Z,89.61
2019-03-27T11:15:20.610Z,91.31
2019-03-27T11:16:20.556Z,89.79
2019-03-27T11:17:20.524Z,89.41
2019-03-27T11:18:20.450Z,92.08
2019-03-27T11:19:20.397Z,89.41
2019-03-27T11:20:30.339Z,89.32
2019-03-27T11:21:20.296Z,89.41
2019-03-27T11:22:20.268Z,88.70
2019-03-27T11:23:20.183Z,87.36
2019-03-27T11:24:20.136Z,88.60
2019-03-27T11:25:20.080Z,87.93
2019-03-27T11:26:20.034Z,88.51
2019-03-27T11:27:20.005Z,87.84
2019-03-27T11:28:19.939Z,86.79
2019-03-27T11:29:19.898Z,87.17
2019-03-27T11:30:19.816Z,87.36
2019-03-27T11:31:19.764Z,89.55
2019-03-27T11:32:19.712Z,89.36
2019-03-27T11:33:19.685Z,88.75
2019-03-27T11:34:19.605Z,88.56
2019-03-27T11:35:19.557Z,88.65
2019-03-27T11:36:19.503Z,89.03
2019-03-27T11:37:19.452Z,90.17
2019-03-27T11:38:19.416Z,90.94
2019-03-27T11:39:19.341Z,90.79
2019-03-27T11:40:19.285Z,90.60
2019-03-27T11:41:19.243Z,91.27
2019-03-27T11:42:19.198Z,91.46
2019-03-27T11:43:19.156Z,92.22
2019-03-27T11:44:19.083Z,89.36
2019-03-27T11:45:19.024Z,88.12
2019-03-27T11:46:18.977Z,87.84
2019-03-27T11:47:18.923Z,87.17
2019-03-27T11:48:18.903Z,88.64
2019-03-27T11:49:18.826Z,89.12
2019-03-27T11:50:18.769Z,88.26
2019-03-27T11:51:18.708Z,90.17
2019-03-27T11:52:18.674Z,88.84
2019-03-27T11:53:18.635Z,87.60
2019-03-27T11:54:18.558Z,89.03
2019-03-27T11:55:18.506Z,87.50
2019-03-27T11:56:18.451Z,86.41
2019-03-27T11:57:18.409Z,88.51
2019-03-27T11:58:18.373Z,89.07
2019-03-27T11:59:18.296Z,89.98
2019-03-27T12:00:18.247Z,90.08
2019-03-27T12:01:18.204Z,89.60
2019-03-27T12:02:18.139Z,89.50
2019-03-27T12:03:18.119Z,89.40
2019-03-27T12:04:18.046Z,89.22
2019-03-27T12:05:17.992Z,91.50
2019-03-27T12:06:17.934Z,87.60
2019-03-27T12:07:17.878Z,86.55
2019-03-27T12:08:17.855Z,87.21
2019-03-27T12:09:17.794Z,87.60
2019-03-27T12:10:17.728Z,85.88
2019-03-27T12:11:17.672Z,86.07
2019-03-27T12:12:17.685Z,87.88
2019-03-27T12:13:17.626Z,88.31
2019-03-27T12:14:17.523Z,89.74
2019-03-27T12:15:17.475Z,89.54
2019-03-27T12:16:17.421Z,89.83
2019-03-27T12:17:17.372Z,88.50
2019-03-27T12:18:17.346Z,89.54
2019-03-27T12:19:17.262Z,89.64
2019-03-27T12:20:17.209Z,88.12
2019-03-27T12:21:17.164Z,87.83
2019-03-27T12:22:17.112Z,92.36
2019-03-27T12:23:17.173Z,90.55
2019-03-27T12:24:17.070Z,89.03
2019-03-27T12:25:17.116Z,89.69
2019-03-27T12:26:16.902Z,90.93
2019-03-27T12:27:16.851Z,91.03
2019-03-27T12:28:16.830Z,88.84
2019-03-27T12:29:18.187Z,90.26
2019-03-27T12:30:16.701Z,90.26
2019-03-27T12:31:16.660Z,90.45
2019-03-27T12:32:16.602Z,90.31
2019-03-27T12:33:16.570Z,89.75
2019-03-27T12:34:16.495Z,90.60
2019-03-27T12:35:16.450Z,95.65
2019-03-27T12:36:16.392Z,90.12
2019-03-27T12:37:16.336Z,92.89
2019-03-27T12:38:16.309Z,89.17
2019-03-27T12:39:16.241Z,89.65
2019-03-27T12:40:16.179Z,89.79
2019-03-27T12:41:16.142Z,88.12
2019-03-27T12:42:16.081Z,94.46
2019-03-27T12:43:16.048Z,94.93
2019-03-27T12:44:15.977Z,91.13
2019-03-27T12:45:15.926Z,91.03
2019-03-27T12:46:15.873Z,89.51
2019-03-27T12:47:15.829Z,90.84
2019-03-27T12:48:15.801Z,90.75
2019-03-27T12:49:15.715Z,91.70
2019-03-27T12:50:15.658Z,90.56
2019-03-27T12:51:15.608Z,90.75
2019-03-27T12:52:15.553Z,93.41
2019-03-27T12:53:15.509Z,91.51
2019-03-27T12:54:15.482Z,89.70
2019-03-27T12:55:15.512Z,92.94
2019-03-27T12:56:15.350Z,92.08
2019-03-27T12:57:15.298Z,87.51
2019-03-27T12:58:15.249Z,93.22